Time;durP1;ratioP1;P1;durP2;ratioP2;P2;SDS_P1;SDS_P2;PMS_P1;PMS_P2;Temp;Humidity;BMP_temperature;BMP_pressure;BME280_temperature;BME280_humidity;BME280_pressure;Samples;Min_cycle;Max_cycle;Signal;HPM_P1;HPM_P2
2022/07/09 00:00:43;;;;;;;1.30;1.20;;;22.90;99.90;;;;;;4134837;28;20221;-74
2022/07/09 00:02:46;;;;;;;1.50;1.10;;;22.90;99.90;;;;;;4133473;28;20213;-74
2022/07/09 00:04:49;;;;;;;1.25;1.05;;;22.90;99.90;;;;;;4130147;28;20221;-74
2022/07/09 00:06:52;;;;;;;1.30;1.20;;;22.90;99.90;;;;;;4130069;28;20272;-74
2022/07/09 00:08:54;;;;;;;3.60;1.40;;;22.90;99.90;;;;;;4122181;28;20222;-74
2022/07/09 00:10:56;;;;;;;1.95;1.27;;;22.90;99.90;;;;;;4140063;28;20213;-74
2022/07/09 00:12:58;;;;;;;2.45;1.30;;;22.90;99.90;;;;;;4134153;28;20265;-74
2022/07/09 00:15:01;;;;;;;2.70;1.45;;;22.90;99.90;;;;;;4127185;28;20261;-74
2022/07/09 00:17:03;;;;;;;2.25;1.05;;;22.90;99.90;;;;;;4136764;28;20237;-74
2022/07/09 00:19:06;;;;;;;1.10;1.00;;;22.90;99.90;;;;;;4143670;28;20267;-74
2022/07/09 00:21:09;;;;;;;2.45;1.10;;;22.90;99.90;;;;;;4128289;28;20271;-74
2022/07/09 00:23:12;;;;;;;2.50;1.23;;;22.90;99.90;;;;;;4123906;28;20218;-74
2022/07/09 00:25:14;;;;;;;1.63;1.17;;;22.90;99.90;;;;;;4139442;28;20710;-74
2022/07/09 00:27:16;;;;;;;2.28;1.35;;;22.90;99.90;;;;;;4127959;28;20284;-74
2022/07/09 00:29:19;;;;;;;2.35;1.50;;;22.80;99.90;;;;;;4126881;28;20223;-74
2022/07/09 00:31:21;;;;;;;2.08;1.50;;;22.80;99.90;;;;;;4135067;28;20221;-74
2022/07/09 00:33:23;;;;;;;2.03;1.40;;;22.80;99.90;;;;;;4130001;28;20229;-74
2022/07/09 00:35:26;;;;;;;1.85;1.40;;;22.80;99.90;;;;;;4134021;28;20244;-74
2022/07/09 00:37:29;;;;;;;1.92;1.33;;;22.80;99.90;;;;;;4120124;28;20247;-74
2022/07/09 00:39:32;;;;;;;1.48;1.17;;;22.80;99.90;;;;;;4134249;28;20225;-74
2022/07/09 00:41:34;;;;;;;1.23;1.13;;;22.90;99.90;;;;;;4132940;28;20264;-74
2022/07/09 00:43:36;;;;;;;1.63;1.20;;;22.80;99.90;;;;;;4137141;28;20218;-74
2022/07/09 00:45:39;;;;;;;1.45;1.30;;;22.80;99.90;;;;;;4137707;28;20222;-74
2022/07/09 00:47:41;;;;;;;1.55;1.00;;;22.80;99.90;;;;;;4130890;28;20261;-73
2022/07/09 00:49:44;;;;;;;1.80;1.40;;;22.80;99.90;;;;;;4134650;28;20257;-74
2022/07/09 00:51:47;;;;;;;1.88;1.35;;;22.80;99.90;;;;;;4128263;28;20218;-73
2022/07/09 00:53:51;;;;;;;1.73;1.30;;;22.90;99.90;;;;;;4130701;28;20538;-74
2022/07/09 00:55:55;;;;;;;2.88;1.33;;;22.80;99.90;;;;;;4132641;28;20222;-74
2022/07/09 00:57:57;;;;;;;3.33;1.52;;;22.80;99.90;;;;;;4135708;28;20977;-74
2022/07/09 01:00:00;;;;;;;2.30;1.40;;;22.80;99.90;;;;;;4133546;28;20260;-74
2022/07/09 01:02:04;;;;;;;1.50;1.30;;;22.80;99.90;;;;;;4134182;28;20222;-74
2022/07/09 01:04:07;;;;;;;1.88;1.05;;;22.80;99.90;;;;;;4130025;28;20209;-74
2022/07/09 01:06:09;;;;;;;2.30;1.10;;;22.80;99.90;;;;;;4124689;28;20260;-74
2022/07/09 01:08:12;;;;;;;1.48;1.20;;;22.80;99.90;;;;;;4137580;28;20210;-74
2022/07/09 01:10:15;;;;;;;1.55;1.00;;;22.80;99.90;;;;;;4125549;28;20265;-74
2022/07/09 01:12:18;;;;;;;1.73;1.17;;;22.80;99.90;;;;;;4130782;28;20218;-74
2022/07/09 01:14:20;;;;;;;1.60;1.30;;;22.80;99.90;;;;;;4128664;28;20221;-74
2022/07/09 01:16:23;;;;;;;1.35;1.23;;;22.80;99.90;;;;;;4141005;28;20213;-74
2022/07/09 01:18:25;;;;;;;1.73;1.35;;;22.80;99.90;;;;;;4148975;28;20233;-74
2022/07/09 01:20:30;;;;;;;1.75;1.60;;;22.80;99.90;;;;;;4149006;28;20271;-74
2022/07/09 01:22:32;;;;;;;2.60;1.45;;;22.80;99.90;;;;;;4142567;28;20629;-74
2022/07/09 01:24:35;;;;;;;2.60;1.42;;;22.80;99.90;;;;;;4145046;28;20268;-73
2022/07/09 01:26:37;;;;;;;1.67;1.40;;;22.80;99.90;;;;;;4148240;28;20263;-74
2022/07/09 01:28:39;;;;;;;2.30;1.55;;;22.80;99.90;;;;;;4148864;28;20209;-74
2022/07/09 01:30:42;;;;;;;3.13;1.63;;;22.80;99.90;;;;;;4146415;28;20646;-73
2022/07/09 01:32:44;;;;;;;1.90;1.38;;;22.80;99.90;;;;;;4146826;28;20228;-74
2022/07/09 01:34:47;;;;;;;2.88;1.88;;;22.70;99.90;;;;;;4148279;28;20217;-74
2022/07/09 01:36:50;;;;;;;2.25;1.40;;;22.80;99.90;;;;;;4148298;28;20221;-74
2022/07/09 01:38:53;;;;;;;2.20;1.58;;;22.80;99.90;;;;;;4148356;28;20233;-74
2022/07/09 01:40:55;;;;;;;1.95;1.65;;;22.80;99.90;;;;;;4148809;28;20221;-74
2022/07/09 01:42:57;;;;;;;2.25;1.60;;;22.80;99.90;;;;;;4148919;28;20225;-74
2022/07/09 01:45:00;;;;;;;1.67;1.33;;;22.80;99.90;;;;;;4145835;28;20267;-74
2022/07/09 01:47:02;;;;;;;1.52;1.40;;;22.80;99.90;;;;;;4148166;28;20268;-73
2022/07/09 01:49:05;;;;;;;1.73;1.40;;;22.70;99.90;;;;;;4143272;28;20218;-74
2022/07/09 01:51:07;;;;;;;1.85;1.30;;;22.70;99.90;;;;;;4147353;28;20744;-74
2022/07/09 01:53:11;;;;;;;1.33;1.17;;;22.80;99.90;;;;;;4148799;28;20292;-74
2022/07/09 01:55:14;;;;;;;1.40;1.30;;;22.80;99.90;;;;;;4148382;28;20628;-74
2022/07/09 01:57:16;;;;;;;1.88;1.38;;;22.70;99.90;;;;;;4141011;28;20275;-74
2022/07/09 01:59:18;;;;;;;1.60;1.30;;;22.80;99.90;;;;;;4148047;28;20259;-74
2022/07/09 02:01:21;;;;;;;1.67;1.40;;;22.80;99.90;;;;;;4147992;28;20217;-74
2022/07/09 02:03:23;;;;;;;1.55;1.38;;;22.70;99.90;;;;;;4147708;28;20252;-74
2022/07/09 02:05:26;;;;;;;2.70;1.63;;;22.70;99.90;;;;;;4143229;28;20221;-74
2022/07/09 02:07:28;;;;;;;3.22;1.50;;;22.80;99.90;;;;;;4148706;28;20229;-74
2022/07/09 02:09:32;;;;;;;1.58;1.45;;;22.80;99.90;;;;;;4141310;28;20264;-74
2022/07/09 02:11:34;;;;;;;1.80;1.60;;;22.70;99.90;;;;;;4136892;28;20272;-74
2022/07/09 02:13:36;;;;;;;1.77;1.58;;;22.70;99.90;;;;;;4147638;28;20275;-74
2022/07/09 02:15:39;;;;;;;1.73;1.33;;;22.70;99.90;;;;;;4148194;28;20267;-73
2022/07/09 02:17:41;;;;;;;2.90;1.48;;;22.70;99.90;;;;;;4137886;28;20224;-74
2022/07/09 02:19:43;;;;;;;2.17;1.42;;;22.70;99.90;;;;;;4136372;28;20243;-74
2022/07/09 02:21:46;;;;;;;1.60;1.35;;;22.70;99.90;;;;;;4150663;28;20315;-74
2022/07/09 02:23:48;;;;;;;3.72;1.55;;;22.70;99.90;;;;;;4154596;28;20661;-74
2022/07/09 02:25:52;;;;;;;2.03;1.60;;;22.70;99.90;;;;;;4158467;28;20260;-74
2022/07/09 02:27:54;;;;;;;2.30;1.60;;;22.70;99.90;;;;;;4161413;28;20213;-74
2022/07/09 02:29:57;;;;;;;2.45;1.70;;;22.70;99.90;;;;;;4144930;28;20213;-74
2022/07/09 02:31:59;;;;;;;2.58;1.75;;;22.70;99.90;;;;;;4153404;28;20263;-74
2022/07/09 02:34:01;;;;;;;2.10;1.90;;;22.70;99.90;;;;;;4139655;28;20268;-74
2022/07/09 02:36:04;;;;;;;2.65;1.60;;;22.70;99.90;;;;;;4152138;28;20254;-74
2022/07/09 02:38:06;;;;;;;2.50;1.73;;;22.60;99.90;;;;;;4149669;28;20303;-74
2022/07/09 02:40:10;;;;;;;1.98;1.60;;;22.70;99.90;;;;;;4142492;28;20562;-74
2022/07/09 02:42:13;;;;;;;2.67;1.90;;;22.70;99.90;;;;;;4141891;28;20282;-73
2022/07/09 02:44:16;;;;;;;2.67;1.60;;;22.70;99.90;;;;;;4148148;28;20221;-74
2022/07/09 02:46:18;;;;;;;3.60;1.80;;;22.70;99.90;;;;;;4148059;28;20267;-74
2022/07/09 02:48:20;;;;;;;2.25;1.80;;;22.70;99.90;;;;;;4151694;28;20213;-74
2022/07/09 02:50:23;;;;;;;2.70;1.60;;;22.70;99.90;;;;;;4150768;28;20216;-74
2022/07/09 02:52:25;;;;;;;2.72;1.73;;;22.70;99.90;;;;;;4161308;28;20733;-74
2022/07/09 02:54:27;;;;;;;1.58;1.48;;;22.70;99.90;;;;;;4153824;28;20214;-74
2022/07/09 02:56:30;;;;;;;2.30;1.90;;;22.70;99.90;;;;;;4150467;28;20267;-74
2022/07/09 02:58:33;;;;;;;2.72;1.58;;;22.70;99.90;;;;;;4155929;28;20286;-74
2022/07/09 03:00:36;;;;;;;3.72;1.80;;;22.60;99.90;;;;;;4148129;28;20221;-74
2022/07/09 03:02:38;;;;;;;1.83;1.30;;;22.70;99.90;;;;;;4150708;28;20621;-73
2022/07/09 03:04:41;;;;;;;2.45;1.65;;;22.60;99.90;;;;;;4146952;28;20615;-74
2022/07/09 03:06:43;;;;;;;2.42;1.88;;;22.60;99.90;;;;;;4147234;28;20216;-74
2022/07/09 03:08:45;;;;;;;1.55;1.45;;;22.70;99.90;;;;;;4150223;28;20228;-73
2022/07/09 03:10:48;;;;;;;1.92;1.60;;;22.60;99.90;;;;;;4140794;28;20608;-74
2022/07/09 03:12:50;;;;;;;2.03;1.70;;;22.60;99.90;;;;;;4145780;28;20221;-74
2022/07/09 03:14:54;;;;;;;1.70;1.50;;;22.60;99.90;;;;;;4148214;28;20276;-74
2022/07/09 03:16:56;;;;;;;2.20;1.70;;;22.70;99.90;;;;;;4141751;28;20296;-74
2022/07/09 03:18:58;;;;;;;2.03;1.50;;;22.60;99.90;;;;;;4155451;28;20236;-74
2022/07/09 03:21:01;;;;;;;3.33;1.85;;;22.70;99.90;;;;;;4160139;28;20270;-74
2022/07/09 03:23:03;;;;;;;3.50;1.90;;;22.60;99.90;;;;;;4152554;28;20658;-74
2022/07/09 03:25:07;;;;;;;2.33;2.13;;;22.60;99.90;;;;;;4139382;28;20225;-73
2022/07/09 03:27:09;;;;;;;1.88;1.70;;;22.60;99.90;;;;;;4135940;28;20665;-74
2022/07/09 03:29:11;;;;;;;3.30;1.83;;;22.60;99.90;;;;;;4161578;28;20224;-74
2022/07/09 03:31:15;;;;;;;2.63;1.80;;;22.60;99.90;;;;;;4151814;28;20626;-74
2022/07/09 03:33:18;;;;;;;3.03;1.90;;;22.60;99.90;;;;;;4154879;28;20216;-73
2022/07/09 03:35:20;;;;;;;3.40;1.90;;;22.70;99.90;;;;;;4157687;28;20267;-73
2022/07/09 03:37:23;;;;;;;3.17;1.75;;;22.60;99.90;;;;;;4160965;28;20220;-74
2022/07/09 03:39:25;;;;;;;1.77;1.60;;;22.60;99.90;;;;;;4150715;28;20318;-74
2022/07/09 03:41:28;;;;;;;2.55;1.60;;;22.60;99.90;;;;;;4139221;28;20670;-74
2022/07/09 03:43:30;;;;;;;2.53;1.75;;;22.70;99.90;;;;;;4143176;28;20225;-74
2022/07/09 03:45:32;;;;;;;2.08;1.73;;;22.60;99.90;;;;;;4148985;28;20221;-74
2022/07/09 03:47:36;;;;;;;3.42;1.80;;;22.60;99.90;;;;;;4149799;28;20353;-74
2022/07/09 03:49:38;;;;;;;1.60;1.50;;;22.60;99.90;;;;;;4153106;28;20264;-74
2022/07/09 03:51:42;;;;;;;1.98;1.77;;;22.70;99.90;;;;;;4145796;28;20217;-74
2022/07/09 03:53:44;;;;;;;2.35;1.95;;;22.60;99.90;;;;;;4139361;28;20210;-74
2022/07/09 03:55:47;;;;;;;2.75;1.80;;;22.60;99.90;;;;;;4143575;28;20267;-73
2022/07/09 03:57:49;;;;;;;3.33;1.80;;;22.60;99.90;;;;;;4151909;28;20267;-74
2022/07/09 03:59:51;;;;;;;2.05;1.75;;;22.60;99.90;;;;;;4146766;28;20999;-74
2022/07/09 04:01:54;;;;;;;2.78;1.77;;;22.60;99.90;;;;;;4149543;28;20559;-74
2022/07/09 04:03:58;;;;;;;3.35;1.75;;;22.60;99.90;;;;;;4146416;28;20439;-74
2022/07/09 04:06:00;;;;;;;2.45;2.15;;;22.60;99.90;;;;;;4146249;28;20213;-74
2022/07/09 04:08:03;;;;;;;2.00;1.67;;;22.60;99.90;;;;;;4147457;28;20217;-73
2022/07/09 04:10:06;;;;;;;2.97;1.95;;;22.60;99.90;;;;;;4159213;28;20228;-74
2022/07/09 04:12:09;;;;;;;1.88;1.60;;;22.60;99.90;;;;;;4154394;28;20279;-74
2022/07/09 04:14:12;;;;;;;2.85;2.10;;;22.60;99.90;;;;;;4142446;28;20248;-74
2022/07/09 04:16:14;;;;;;;3.80;2.10;;;22.60;99.90;;;;;;4143932;28;20217;-74
2022/07/09 04:18:16;;;;;;;2.58;1.70;;;22.60;99.90;;;;;;4132692;28;20689;-74
2022/07/09 04:20:21;;;;;;;2.13;1.88;;;22.60;99.90;;;;;;4139953;28;20264;-74
2022/07/09 04:22:23;;;;;;;2.22;1.85;;;22.60;99.90;;;;;;4142482;28;20268;-74
2022/07/09 04:24:25;;;;;;;2.67;1.75;;;22.60;99.90;;;;;;4156140;28;20263;-74
2022/07/09 04:26:28;;;;;;;2.08;1.77;;;22.60;99.90;;;;;;4154469;28;20216;-74
2022/07/09 04:28:30;;;;;;;2.08;1.80;;;22.60;99.90;;;;;;4151601;28;20217;-74
2022/07/09 04:30:33;;;;;;;3.67;2.13;;;22.60;99.90;;;;;;4143187;28;20245;-74
2022/07/09 04:32:35;;;;;;;2.78;1.95;;;22.60;99.90;;;;;;4143515;28;20216;-74
2022/07/09 04:34:37;;;;;;;2.50;1.80;;;22.60;99.90;;;;;;4154824;28;20217;-74
2022/07/09 04:36:41;;;;;;;3.33;2.00;;;22.60;99.90;;;;;;4152766;28;20212;-74
2022/07/09 04:38:43;;;;;;;3.58;1.85;;;22.60;99.90;;;;;;4143737;28;20248;-74
2022/07/09 04:40:46;;;;;;;2.90;2.22;;;22.60;99.90;;;;;;4141301;28;20212;-74
2022/07/09 04:42:48;;;;;;;2.65;2.15;;;22.60;99.90;;;;;;4151008;28;20630;-74
2022/07/09 04:44:50;;;;;;;2.30;1.92;;;22.60;99.90;;;;;;4155252;28;20228;-74
2022/07/09 04:46:53;;;;;;;2.72;2.05;;;22.60;99.90;;;;;;4150704;28;20212;-74
2022/07/09 04:48:55;;;;;;;2.47;2.00;;;22.60;99.90;;;;;;4153446;28;20257;-74
2022/07/09 04:50:58;;;;;;;2.17;1.90;;;22.60;99.90;;;;;;4154606;28;20216;-74
2022/07/09 04:53:02;;;;;;;2.08;1.80;;;22.60;99.90;;;;;;4160690;28;20243;-74
2022/07/09 04:55:05;;;;;;;1.85;1.63;;;22.60;99.90;;;;;;4151480;28;20224;-74
2022/07/09 04:57:07;;;;;;;2.78;2.05;;;22.60;99.90;;;;;;4145330;28;20564;-74
2022/07/09 04:59:09;;;;;;;4.47;2.10;;;22.60;99.90;;;;;;4150612;28;20678;-74
2022/07/09 05:01:12;;;;;;;4.88;1.80;;;22.60;99.90;;;;;;4153346;28;20220;-74
2022/07/09 05:03:14;;;;;;;3.25;2.33;;;22.60;99.90;;;;;;4149694;28;20213;-74
2022/07/09 05:05:17;;;;;;;3.83;2.20;;;22.60;99.90;;;;;;4144525;28;20718;-74
2022/07/09 05:07:19;;;;;;;3.83;2.15;;;22.60;99.90;;;;;;4148999;28;20625;-74
2022/07/09 05:09:23;;;;;;;2.17;1.95;;;22.60;99.90;;;;;;4149129;28;20217;-74
2022/07/09 05:11:26;;;;;;;2.80;2.15;;;22.60;99.90;;;;;;4147091;28;20319;-74
2022/07/09 05:13:28;;;;;;;3.60;2.05;;;22.60;99.90;;;;;;4145312;28;20728;-74
2022/07/09 05:15:32;;;;;;;2.50;2.13;;;22.60;99.90;;;;;;4141738;28;20731;-74
2022/07/09 05:17:35;;;;;;;2.08;1.88;;;22.60;99.90;;;;;;4147312;28;20732;-74
2022/07/09 05:19:37;;;;;;;2.20;1.88;;;22.60;99.90;;;;;;4141119;28;20238;-74
2022/07/09 05:21:40;;;;;;;2.33;2.03;;;22.60;99.90;;;;;;4133183;28;20264;-74
2022/07/09 05:23:42;;;;;;;2.17;1.90;;;22.60;99.90;;;;;;4132615;28;20213;-74
2022/07/09 05:25:46;;;;;;;2.20;2.00;;;22.60;99.90;;;;;;4132816;28;20258;-74
2022/07/09 05:27:48;;;;;;;2.20;2.00;;;22.60;99.90;;;;;;4148207;28;20291;-74
2022/07/09 05:29:51;;;;;;;3.20;2.08;;;22.60;99.90;;;;;;4138162;28;20210;-74
2022/07/09 05:31:53;;;;;;;3.20;1.98;;;22.60;99.90;;;;;;4134908;28;20218;-74
2022/07/09 05:33:56;;;;;;;2.25;2.05;;;22.60;99.90;;;;;;4141714;28;20598;-74
2022/07/09 05:35:59;;;;;;;2.75;1.95;;;22.60;99.90;;;;;;4146925;28;20221;-74
2022/07/09 05:38:01;;;;;;;2.30;1.95;;;22.60;99.90;;;;;;4141699;28;20284;-73
2022/07/09 05:40:06;;;;;;;3.80;2.22;;;22.60;99.90;;;;;;4127526;28;20284;-74
2022/07/09 05:42:09;;;;;;;3.17;1.83;;;22.60;99.90;;;;;;4128845;28;20221;-74
2022/07/09 05:44:12;;;;;;;2.22;1.70;;;22.60;99.90;;;;;;4125226;28;20278;-74
2022/07/09 05:46:14;;;;;;;2.58;2.03;;;22.60;99.90;;;;;;4133254;28;20267;-74
2022/07/09 05:48:16;;;;;;;2.25;2.05;;;22.60;99.90;;;;;;4136353;28;20225;-74
2022/07/09 05:50:19;;;;;;;2.90;2.08;;;22.60;99.90;;;;;;4123544;28;20611;-73
2022/07/09 05:52:21;;;;;;;2.30;1.95;;;22.60;99.90;;;;;;4130563;28;20626;-74
2022/07/09 05:54:24;;;;;;;3.30;2.00;;;22.60;99.90;;;;;;4146736;28;20217;-74
2022/07/09 05:56:26;;;;;;;3.75;2.10;;;22.60;99.90;;;;;;4135516;28;20213;-74
2022/07/09 05:58:30;;;;;;;2.15;1.95;;;22.60;99.90;;;;;;4139991;28;20696;-74
2022/07/09 06:00:32;;;;;;;2.60;1.83;;;22.60;99.90;;;;;;4128845;28;20238;-74
2022/07/09 06:02:34;;;;;;;3.05;2.28;;;22.60;99.90;;;;;;4137675;28;20326;-74
2022/07/09 06:04:37;;;;;;;2.10;1.80;;;22.60;99.90;;;;;;4129073;28;20218;-74
2022/07/09 06:06:39;;;;;;;2.42;2.00;;;22.60;99.90;;;;;;4128742;28;20261;-73
2022/07/09 06:08:41;;;;;;;2.65;2.03;;;22.60;99.90;;;;;;4124931;28;20214;-74
2022/07/09 06:10:44;;;;;;;3.78;2.08;;;22.60;99.90;;;;;;4124301;28;20219;-74
2022/07/09 06:12:46;;;;;;;2.92;1.90;;;22.60;99.90;;;;;;4131626;28;20221;-73
2022/07/09 06:14:50;;;;;;;2.85;2.00;;;22.60;99.90;;;;;;4137779;28;20275;-74
2022/07/09 06:16:54;;;;;;;2.53;2.05;;;22.60;99.90;;;;;;4133080;28;20238;-74
2022/07/09 06:18:56;;;;;;;3.08;2.10;;;22.60;99.90;;;;;;4134798;28;20272;-74
2022/07/09 06:20:58;;;;;;;2.33;2.10;;;22.60;99.90;;;;;;4144654;28;20259;-74
2022/07/09 06:23:00;;;;;;;2.15;1.90;;;22.60;99.90;;;;;;4149947;28;20220;-74
2022/07/09 06:25:03;;;;;;;2.70;2.13;;;22.60;99.90;;;;;;4157631;28;20262;-74
2022/07/09 06:27:06;;;;;;;3.45;2.17;;;22.60;99.90;;;;;;4159906;28;20216;-74
2022/07/09 06:29:08;;;;;;;4.57;1.90;;;22.60;99.90;;;;;;4150582;28;20254;-74
2022/07/09 06:31:12;;;;;;;2.15;1.90;;;22.60;99.90;;;;;;4146686;28;20217;-74
2022/07/09 06:33:14;;;;;;;2.90;1.98;;;22.60;99.90;;;;;;4139932;28;20264;-74
2022/07/09 06:35:17;;;;;;;2.75;1.95;;;22.60;99.90;;;;;;4149445;28;20269;-74
2022/07/09 06:37:19;;;;;;;3.15;2.00;;;22.60;99.90;;;;;;4154503;28;20271;-74
2022/07/09 06:41:43;;;;;;;2.83;2.15;;;22.70;99.90;;;;;;4148089;28;20295;-74
2022/07/09 06:43:46;;;;;;;3.25;2.10;;;22.70;99.90;;;;;;4152121;28;20548;-74
2022/07/09 06:45:48;;;;;;;3.10;2.13;;;22.60;99.90;;;;;;4149782;28;20654;-74
2022/07/09 06:47:53;;;;;;;2.25;1.88;;;22.60;99.90;;;;;;4144567;28;20225;-74
2022/07/09 06:49:56;;;;;;;3.85;2.13;;;22.60;99.90;;;;;;4149236;28;20514;-74
2022/07/09 06:51:58;;;;;;;3.67;2.35;;;22.60;99.90;;;;;;4151752;28;20614;-74
2022/07/09 06:54:00;;;;;;;2.08;1.88;;;22.60;99.90;;;;;;4135300;28;20214;-74
2022/07/09 06:56:03;;;;;;;4.25;2.17;;;22.60;99.90;;;;;;4139871;28;20605;-74
2022/07/09 06:58:05;;;;;;;2.15;1.95;;;22.60;99.90;;;;;;4151574;28;20662;-74
2022/07/09 07:00:09;;;;;;;2.55;2.05;;;22.60;99.90;;;;;;4150097;28;20221;-74
2022/07/09 07:02:11;;;;;;;3.00;2.20;;;22.70;99.90;;;;;;4150838;28;20673;-74
2022/07/09 07:04:15;;;;;;;3.05;1.85;;;22.70;99.90;;;;;;4147279;28;20631;-73
2022/07/09 07:06:17;;;;;;;3.67;1.65;;;22.70;99.90;;;;;;4142162;28;20213;-73
2022/07/09 07:08:19;;;;;;;2.53;1.52;;;22.70;99.90;;;;;;4144126;28;20218;-74
2022/07/09 07:10:22;;;;;;;2.20;2.00;;;22.60;99.90;;;;;;4138530;28;20225;-73
2022/07/09 07:12:24;;;;;;;2.50;2.05;;;22.70;99.90;;;;;;4147804;28;20283;-74
2022/07/09 07:14:27;;;;;;;3.40;2.03;;;22.70;99.90;;;;;;4151366;28;20271;-73
2022/07/09 07:16:29;;;;;;;4.10;2.22;;;22.70;99.90;;;;;;4142267;28;20310;-73
2022/07/09 07:18:31;;;;;;;2.75;2.03;;;22.70;99.90;;;;;;4140176;28;20276;-74
2022/07/09 07:20:35;;;;;;;2.20;1.88;;;22.70;99.90;;;;;;4137700;28;20587;-74
2022/07/09 07:22:37;;;;;;;2.42;2.00;;;22.70;99.90;;;;;;4132857;28;20241;-74
2022/07/09 07:24:40;;;;;;;3.47;1.85;;;22.70;99.90;;;;;;4128013;28;20665;-74
2022/07/09 07:26:42;;;;;;;3.40;2.03;;;22.80;99.90;;;;;;4136763;28;20221;-74
2022/07/09 07:28:45;;;;;;;3.55;2.10;;;22.80;99.90;;;;;;4140899;28;20217;-74
2022/07/09 07:30:47;;;;;;;3.80;2.00;;;22.80;99.90;;;;;;4134285;28;20213;-73
2022/07/09 07:32:49;;;;;;;2.80;2.45;;;22.80;99.90;;;;;;4135510;28;20220;-73
2022/07/09 07:34:52;;;;;;;4.40;1.88;;;22.80;99.90;;;;;;4139351;28;20229;-73
2022/07/09 07:36:56;;;;;;;3.20;2.00;;;22.80;99.90;;;;;;4146160;28;20221;-73
2022/07/09 07:38:58;;;;;;;3.35;2.35;;;22.80;99.90;;;;;;4123588;28;20272;-73
2022/07/09 07:41:00;;;;;;;2.45;1.92;;;22.80;99.90;;;;;;4125385;28;20234;-73
2022/07/09 07:43:03;;;;;;;4.13;2.08;;;22.80;99.90;;;;;;4137961;28;20329;-73
2022/07/09 07:45:06;;;;;;;2.25;1.70;;;22.90;99.90;;;;;;4144482;28;20217;-73
2022/07/09 07:47:08;;;;;;;2.33;2.00;;;22.80;99.90;;;;;;4133911;28;20642;-73
2022/07/09 07:49:11;;;;;;;2.63;2.10;;;22.80;99.90;;;;;;4137362;28;20225;-73
2022/07/09 07:51:13;;;;;;;2.25;1.85;;;22.90;99.90;;;;;;4140728;28;20221;-73
2022/07/09 07:53:17;;;;;;;4.57;2.00;;;22.90;99.90;;;;;;4132965;28;20635;-73
2022/07/09 07:55:19;;;;;;;2.58;1.85;;;22.90;99.90;;;;;;4128279;28;20669;-73
2022/07/09 07:57:22;;;;;;;2.50;1.88;;;22.90;99.90;;;;;;4136612;28;20221;-73
2022/07/09 07:59:24;;;;;;;3.28;2.00;;;22.90;99.90;;;;;;4130800;28;20666;-73
2022/07/09 08:01:27;;;;;;;2.78;1.80;;;22.90;99.90;;;;;;4134797;28;20249;-73
2022/07/09 08:03:29;;;;;;;2.63;1.85;;;22.90;99.90;;;;;;4132533;28;20632;-73
2022/07/09 08:05:31;;;;;;;4.13;2.20;;;23.00;99.90;;;;;;4135648;28;20221;-73
2022/07/09 08:07:34;;;;;;;2.25;2.05;;;23.00;99.90;;;;;;4130612;28;20256;-73
2022/07/09 08:09:37;;;;;;;2.75;2.10;;;23.00;99.90;;;;;;4135677;28;20221;-73
2022/07/09 08:11:40;;;;;;;3.05;1.80;;;22.90;99.90;;;;;;4120058;28;20210;-73
2022/07/09 08:13:42;;;;;;;2.58;2.03;;;22.90;99.90;;;;;;4131129;28;20213;-73
2022/07/09 08:15:45;;;;;;;3.70;2.08;;;23.00;99.90;;;;;;4134720;28;20218;-73
2022/07/09 08:17:47;;;;;;;2.22;2.00;;;23.00;99.90;;;;;;4134271;28;20232;-73
2022/07/09 08:19:50;;;;;;;2.65;1.80;;;23.00;99.90;;;;;;4157102;28;20260;-73
2022/07/09 08:21:52;;;;;;;2.75;1.90;;;22.90;99.90;;;;;;4149149;28;20236;-74
2022/07/09 08:24:00;;;;;;;3.38;1.88;;;23.00;99.90;;;;;;4139883;28;20259;-73
2022/07/09 08:26:03;;;;;;;3.30;1.95;;;23.00;99.90;;;;;;4157342;28;20266;-73
2022/07/09 08:28:06;;;;;;;2.25;1.95;;;23.00;99.90;;;;;;4154349;28;20283;-74
2022/07/09 08:30:09;;;;;;;2.70;2.20;;;23.00;99.90;;;;;;4148177;28;20661;-74
2022/07/09 08:32:11;;;;;;;2.25;1.90;;;23.00;99.90;;;;;;4150928;28;20272;-74
2022/07/09 08:34:14;;;;;;;3.20;1.92;;;23.00;99.90;;;;;;4151871;28;20225;-74
2022/07/09 08:36:16;;;;;;;3.60;2.10;;;23.00;99.90;;;;;;4135904;28;20217;-74
2022/07/09 08:38:18;;;;;;;2.28;1.92;;;23.00;99.90;;;;;;4140358;28;20259;-74
2022/07/09 08:40:21;;;;;;;3.55;2.28;;;23.00;99.90;;;;;;4145468;28;20244;-74
2022/07/09 08:42:25;;;;;;;2.22;1.95;;;23.00;99.90;;;;;;4146623;28;20711;-74
2022/07/09 08:44:30;;;;;;;2.60;1.83;;;23.00;99.90;;;;;;4155573;28;20270;-74
2022/07/09 08:46:33;;;;;;;2.95;2.10;;;23.10;99.90;;;;;;4148610;28;20225;-73
2022/07/09 08:48:37;;;;;;;2.88;2.20;;;23.10;99.90;;;;;;4147139;28;20225;-74
2022/07/09 08:50:42;;;;;;;2.40;2.20;;;23.10;99.90;;;;;;4153639;28;20212;-74
2022/07/09 08:52:44;;;;;;;3.20;2.10;;;23.10;99.90;;;;;;4142124;28;20222;-74
2022/07/09 08:54:47;;;;;;;3.00;2.28;;;23.00;99.90;;;;;;4153968;28;20617;-74
2022/07/09 08:56:50;;;;;;;2.55;1.95;;;23.00;99.90;;;;;;4151296;28;20728;-74
2022/07/09 08:58:54;;;;;;;2.75;2.10;;;23.00;99.90;;;;;;4150900;28;20220;-73
2022/07/09 09:00:58;;;;;;;2.00;1.80;;;23.00;99.90;;;;;;4149596;28;20284;-74
2022/07/09 09:03:00;;;;;;;2.55;2.03;;;23.10;99.90;;;;;;4147607;28;20290;-73
2022/07/09 09:05:08;;;;;;;3.65;2.30;;;23.10;99.90;;;;;;4140898;28;20991;-74
2022/07/09 09:07:15;;;;;;;2.80;2.35;;;23.10;99.90;;;;;;4145033;28;20270;-74
2022/07/09 09:09:20;;;;;;;2.25;1.85;;;23.10;99.90;;;;;;4141187;28;20263;-74
2022/07/09 09:11:23;;;;;;;2.25;2.05;;;23.10;99.90;;;;;;4140434;28;20228;-74
2022/07/09 09:13:26;;;;;;;3.35;2.10;;;23.10;99.90;;;;;;4146509;28;20627;-74
2022/07/09 09:15:30;;;;;;;2.85;2.03;;;23.20;99.90;;;;;;4145689;28;20221;-74
2022/07/09 09:17:32;;;;;;;3.05;1.92;;;23.20;99.90;;;;;;4135587;28;20241;-73
2022/07/09 09:19:34;;;;;;;2.38;2.17;;;23.10;99.90;;;;;;4122722;28;20277;-74
2022/07/09 09:21:38;;;;;;;2.65;2.35;;;23.20;99.90;;;;;;4129737;28;20222;-73
2022/07/09 09:23:44;;;;;;;2.55;2.25;;;23.20;99.90;;;;;;4129672;28;20249;-74
2022/07/09 09:25:47;;;;;;;2.33;2.13;;;23.20;99.90;;;;;;4123863;28;20214;-74
2022/07/09 09:27:53;;;;;;;2.10;1.83;;;23.20;99.90;;;;;;4121890;28;20218;-74
2022/07/09 09:30:00;;;;;;;2.70;2.20;;;23.20;99.90;;;;;;4129927;28;20214;-74
2022/07/09 09:32:12;;;;;;;2.55;1.90;;;23.20;99.90;;;;;;4126568;28;20213;-74
2022/07/09 09:34:16;;;;;;;3.00;2.08;;;23.20;99.90;;;;;;4122173;28;20222;-73
2022/07/09 09:36:29;;;;;;;2.42;2.08;;;23.20;99.90;;;;;;4118174;28;20679;-74
2022/07/09 09:38:31;;;;;;;2.38;1.95;;;23.20;99.90;;;;;;4130474;28;20716;-74
2022/07/09 09:40:35;;;;;;;2.85;2.25;;;23.20;99.90;;;;;;4139131;28;20217;-74
2022/07/09 09:42:41;;;;;;;2.20;1.90;;;23.20;99.90;;;;;;4138390;28;20245;-74
2022/07/09 09:44:45;;;;;;;2.33;1.95;;;23.20;99.90;;;;;;4127789;28;20221;-74
2022/07/09 09:46:48;;;;;;;2.63;2.30;;;23.20;99.90;;;;;;4132146;28;20214;-74
2022/07/09 09:48:52;;;;;;;3.38;2.10;;;23.20;99.90;;;;;;4132792;28;20218;-74
2022/07/09 09:50:57;;;;;;;2.53;2.08;;;23.20;99.90;;;;;;4132500;28;20217;-74
2022/07/09 09:53:01;;;;;;;2.40;2.20;;;23.30;99.90;;;;;;4139497;28;20270;-74
2022/07/09 09:55:04;;;;;;;3.22;2.10;;;23.30;99.90;;;;;;4133527;28;20272;-74
2022/07/09 09:57:09;;;;;;;4.35;2.30;;;23.30;99.90;;;;;;4135174;28;20264;-73
2022/07/09 09:59:12;;;;;;;3.50;2.22;;;23.30;99.90;;;;;;4134357;28;20272;-74
2022/07/09 10:01:15;;;;;;;2.40;1.85;;;23.30;99.90;;;;;;4136446;28;20226;-74
2022/07/09 10:03:18;;;;;;;4.00;2.30;;;23.30;99.90;;;;;;4127696;28;20245;-73
2022/07/09 10:05:21;;;;;;;3.50;2.20;;;23.30;99.90;;;;;;4135525;28;20224;-74
2022/07/09 10:07:24;;;;;;;3.90;2.65;;;23.30;99.90;;;;;;4139491;28;20816;-74
2022/07/09 10:09:26;;;;;;;4.93;2.40;;;23.40;99.90;;;;;;4120817;28;20241;-74
2022/07/09 10:11:39;;;;;;;3.58;2.30;;;23.40;99.90;;;;;;4145939;28;20272;-74
2022/07/09 10:13:51;;;;;;;2.38;2.17;;;23.30;99.90;;;;;;4128190;28;20206;-74
2022/07/09 10:15:56;;;;;;;3.13;2.20;;;23.30;99.90;;;;;;4138901;28;20214;-74
2022/07/09 10:17:58;;;;;;;2.75;2.30;;;23.40;99.90;;;;;;4141565;28;20291;-74
2022/07/09 10:20:05;;;;;;;2.78;2.40;;;23.40;99.90;;;;;;4136143;28;20555;-74
2022/07/09 10:22:08;;;;;;;3.03;2.33;;;23.40;99.90;;;;;;4134993;28;20557;-74
2022/07/09 10:24:11;;;;;;;2.83;2.38;;;23.40;99.90;;;;;;4125888;28;20666;-73
2022/07/09 10:26:13;;;;;;;3.67;2.40;;;23.40;99.90;;;;;;4142990;28;20217;-74
2022/07/09 10:28:16;;;;;;;3.20;2.30;;;23.40;99.90;;;;;;4138332;28;20731;-74
2022/07/09 10:30:26;;;;;;;3.35;2.40;;;23.40;99.90;;;;;;4134245;28;20614;-74
2022/07/09 10:32:30;;;;;;;2.95;2.60;;;23.40;99.90;;;;;;4137902;28;20646;-74
2022/07/09 10:34:43;;;;;;;2.78;2.55;;;23.40;99.90;;;;;;4128920;28;20619;-74
2022/07/09 10:36:57;;;;;;;3.38;2.78;;;23.40;99.90;;;;;;4140319;28;20247;-74
2022/07/09 10:39:12;;;;;;;2.83;2.53;;;23.40;99.90;;;;;;4133817;28;20202;-74
2022/07/09 10:41:22;;;;;;;3.30;2.80;;;23.40;99.90;;;;;;4138858;28;20221;-73
2022/07/09 10:43:38;;;;;;;2.72;2.50;;;23.50;99.90;;;;;;4141809;28;20241;-74